createdAt,value
2022-12-25T00:01:24.703Z,101143.00
2022-12-25T00:03:56.006Z,101132.00
2022-12-25T00:06:34.105Z,101151.00
2022-12-25T00:09:10.556Z,101149.00
2022-12-25T00:11:41.467Z,101128.00
2022-12-25T00:14:09.012Z,101131.00
2022-12-25T00:16:36.269Z,101134.00
2022-12-25T00:19:03.788Z,101142.00
2022-12-25T00:21:34.396Z,101137.00
2022-12-25T00:24:04.230Z,101135.00
2022-12-25T00:26:35.710Z,101129.00
2022-12-25T00:29:11.140Z,101146.00
2022-12-25T00:31:41.770Z,101150.00
2022-12-25T00:34:14.014Z,101137.00
2022-12-25T00:36:50.321Z,101134.00
2022-12-25T00:39:24.391Z,101141.00
2022-12-25T00:42:14.325Z,101123.00
2022-12-25T00:44:42.079Z,101130.00
2022-12-25T00:47:09.399Z,101132.00
2022-12-25T00:49:36.830Z,101135.00
2022-12-25T00:52:04.241Z,101122.00
2022-12-25T00:54:31.876Z,101115.00
2022-12-25T00:57:15.436Z,101117.00
2022-12-25T00:59:49.565Z,101113.00
2022-12-25T01:02:23.704Z,101128.00
2022-12-25T01:04:56.305Z,101137.00
2022-12-25T01:07:26.524Z,101130.00
2022-12-25T01:10:14.392Z,101130.00
2022-12-25T01:12:53.037Z,101103.00
2022-12-25T01:15:20.884Z,101119.00
2022-12-25T01:17:48.087Z,101115.00
2022-12-25T01:20:36.269Z,101105.00
2022-12-25T01:23:06.153Z,101104.00
2022-12-25T01:25:36.175Z,101102.00
2022-12-25T01:28:03.644Z,101099.00
2022-12-25T01:30:31.818Z,101101.00
2022-12-25T01:32:59.222Z,101100.00
2022-12-25T01:35:26.470Z,101109.00
2022-12-25T01:37:53.869Z,101107.00
2022-12-25T01:40:21.165Z,101110.00
2022-12-25T01:42:48.466Z,101116.00
2022-12-25T01:45:52.922Z,101113.00
2022-12-25T01:48:42.296Z,101114.00
2022-12-25T01:51:47.980Z,101127.00
2022-12-25T01:54:22.302Z,101133.00
2022-12-25T01:56:56.492Z,101133.00
2022-12-25T01:59:27.694Z,101142.00
2022-12-25T02:01:55.881Z,101148.00
2022-12-25T02:04:39.949Z,101149.00
2022-12-25T02:07:21.208Z,101146.00
2022-12-25T02:09:49.283Z,101144.00
2022-12-25T02:12:28.053Z,101145.00
2022-12-25T02:15:05.285Z,101157.00
2022-12-25T02:18:19.519Z,101161.00
2022-12-25T02:21:17.295Z,101159.00
2022-12-25T02:24:11.681Z,101148.00
2022-12-25T02:27:00.742Z,101146.00
2022-12-25T02:30:09.386Z,101152.00
2022-12-25T02:32:50.308Z,101142.00
2022-12-25T02:35:31.327Z,101132.00
2022-12-25T02:38:20.388Z,101143.00
2022-12-25T02:41:00.692Z,101142.00
2022-12-25T02:43:58.204Z,101150.00
2022-12-25T02:46:46.787Z,101152.00
2022-12-25T02:49:40.536Z,101141.00
2022-12-25T02:52:35.522Z,101155.00
2022-12-25T02:55:31.003Z,101127.00
2022-12-25T02:58:24.607Z,101140.00
2022-12-25T03:01:27.147Z,101135.00
2022-12-25T03:04:23.163Z,101133.00
2022-12-25T03:07:11.372Z,101128.00
2022-12-25T03:10:04.879Z,101119.00
2022-12-25T03:12:52.026Z,101129.00
2022-12-25T03:15:38.980Z,101132.00
2022-12-25T03:18:14.427Z,101119.00
2022-12-25T03:21:01.128Z,101113.00
2022-12-25T03:23:55.194Z,101117.00
2022-12-25T03:26:41.916Z,101112.00
2022-12-25T03:29:09.682Z,101091.00
2022-12-25T03:32:07.252Z,101095.00
2022-12-25T03:35:12.044Z,101093.00
2022-12-25T03:38:22.838Z,101077.00
2022-12-25T03:41:32.979Z,101078.00
2022-12-25T03:44:45.054Z,101059.00
2022-12-25T03:47:35.298Z,101049.00
2022-12-25T03:54:34.501Z,101053.00
2022-12-25T03:57:21.258Z,101052.00
2022-12-25T04:00:07.287Z,101054.00
2022-12-25T04:02:56.933Z,101063.00
2022-12-25T04:05:43.265Z,101061.00
2022-12-25T04:08:29.044Z,101057.00
2022-12-25T04:11:14.950Z,101061.00
2022-12-25T04:14:01.018Z,101037.00
2022-12-25T04:16:46.662Z,101042.00
2022-12-25T04:19:32.644Z,101031.00
2022-12-25T04:22:18.671Z,101034.00
2022-12-25T04:25:04.626Z,101038.00
2022-12-25T04:27:50.485Z,101034.00
2022-12-25T04:30:36.055Z,101026.00
2022-12-25T04:33:21.987Z,101028.00
2022-12-25T04:36:09.049Z,101025.00
2022-12-25T04:38:37.278Z,101029.00
2022-12-25T04:41:05.303Z,101029.00
2022-12-25T04:43:33.136Z,101031.00
2022-12-25T04:46:02.918Z,101033.00
2022-12-25T04:48:37.109Z,101039.00
2022-12-25T04:51:20.557Z,101044.00
2022-12-25T04:55:03.321Z,101065.00
2022-12-25T04:57:30.911Z,101045.00
2022-12-25T04:59:58.656Z,101036.00
2022-12-25T05:02:26.082Z,101035.00
2022-12-25T05:04:56.783Z,101035.00
2022-12-25T05:07:24.379Z,101040.00
2022-12-25T05:09:51.664Z,101041.00
2022-12-25T05:12:19.156Z,101030.00
2022-12-25T05:14:46.604Z,101034.00
2022-12-25T05:17:17.090Z,101032.00
2022-12-25T05:19:47.065Z,101033.00
2022-12-25T05:22:14.650Z,101032.00
2022-12-25T05:24:41.878Z,101036.00
2022-12-25T05:27:09.231Z,101035.00
2022-12-25T05:29:36.392Z,101023.00
2022-12-25T05:32:05.141Z,101026.00
2022-12-25T05:34:32.529Z,101023.00
2022-12-25T05:37:00.052Z,101037.00
2022-12-25T05:39:27.406Z,101028.00
2022-12-25T05:41:55.356Z,101010.00
2022-12-25T05:44:23.016Z,101007.00
2022-12-25T05:46:50.494Z,101011.00
2022-12-25T05:49:19.316Z,101009.00
2022-12-25T05:51:46.752Z,100993.00
2022-12-25T05:54:14.494Z,101016.00
2022-12-25T05:56:41.684Z,101007.00
2022-12-25T05:59:08.988Z,101009.00
2022-12-25T06:01:36.326Z,100997.00
2022-12-25T06:04:10.212Z,100988.00
2022-12-25T06:06:39.903Z,100987.00
2022-12-25T06:09:07.392Z,101003.00
2022-12-25T06:11:35.004Z,100996.00
2022-12-25T06:14:02.421Z,100999.00
2022-12-25T06:16:37.209Z,100979.00
2022-12-25T06:19:08.808Z,100984.00
2022-12-25T06:21:38.776Z,100977.00
2022-12-25T06:24:06.863Z,100963.00
2022-12-25T06:26:34.510Z,100947.00
2022-12-25T06:29:02.117Z,100943.00
2022-12-25T06:31:29.534Z,100956.00
2022-12-25T06:33:57.177Z,100947.00
2022-12-25T06:36:28.025Z,100930.00
2022-12-25T06:38:56.152Z,100947.00
2022-12-25T06:41:27.502Z,100957.00
2022-12-25T06:43:58.539Z,100956.00
2022-12-25T06:46:29.328Z,100959.00
2022-12-25T06:49:00.765Z,100950.00
2022-12-25T06:51:31.768Z,100935.00
2022-12-25T06:54:06.052Z,100907.00
2022-12-25T06:56:34.886Z,100913.00
2022-12-25T06:59:08.904Z,100912.00
2022-12-25T07:01:45.494Z,100904.00
2022-12-25T07:04:41.414Z,100892.00
2022-12-25T07:07:09.963Z,100878.00
2022-12-25T07:09:39.348Z,100877.00
2022-12-25T07:12:26.261Z,100874.00
2022-12-25T07:14:56.068Z,100883.00
2022-12-25T07:17:26.914Z,100881.00
2022-12-25T07:19:54.649Z,100870.00
2022-12-25T07:22:21.999Z,100870.00
2022-12-25T07:24:49.267Z,100871.00
2022-12-25T07:27:16.574Z,100874.00
2022-12-25T07:29:43.847Z,100887.00
2022-12-25T07:32:12.328Z,100874.00
2022-12-25T07:34:40.243Z,100878.00
2022-12-25T07:37:08.905Z,100866.00
2022-12-25T07:39:41.269Z,100866.00
2022-12-25T07:42:19.287Z,100856.00
2022-12-25T07:44:56.714Z,100872.00
2022-12-25T07:47:28.839Z,100865.00
2022-12-25T07:50:01.656Z,100887.00
2022-12-25T07:52:31.432Z,100878.00
2022-12-25T07:55:08.750Z,100885.00
2022-12-25T07:57:49.359Z,100887.00
2022-12-25T08:00:33.320Z,100905.00
2022-12-25T08:03:18.529Z,100891.00
2022-12-25T08:06:00.195Z,100906.00
2022-12-25T08:08:27.614Z,100896.00
2022-12-25T08:10:55.084Z,100894.00
2022-12-25T08:13:22.691Z,100880.00
2022-12-25T08:15:59.389Z,100903.00
2022-12-25T08:18:45.902Z,100888.00
2022-12-25T08:21:15.635Z,100906.00
2022-12-25T08:23:45.759Z,100898.00
2022-12-25T08:26:20.403Z,100913.00
2022-12-25T08:28:49.230Z,100922.00
2022-12-25T08:31:27.820Z,100925.00
2022-12-25T08:33:58.297Z,100931.00
2022-12-25T08:36:27.382Z,100922.00
2022-12-25T08:39:02.051Z,100921.00
2022-12-25T08:41:31.535Z,100914.00
2022-12-25T08:43:59.305Z,100913.00
2022-12-25T08:46:26.940Z,100924.00
2022-12-25T08:48:55.234Z,100919.00
2022-12-25T08:51:25.348Z,100919.00
2022-12-25T08:54:00.824Z,100912.00
2022-12-25T08:56:35.731Z,100906.00
2022-12-25T08:59:43.717Z,100910.00
2022-12-25T09:02:23.306Z,100908.00
2022-12-25T09:04:51.058Z,100917.00
2022-12-25T09:07:18.522Z,100938.00
2022-12-25T09:09:47.018Z,100956.00
2022-12-25T09:12:14.468Z,100951.00
2022-12-25T09:14:41.782Z,100953.00
2022-12-25T09:17:09.122Z,100953.00
2022-12-25T09:19:36.647Z,100955.00
2022-12-25T09:22:04.532Z,100946.00
2022-12-25T09:24:31.938Z,100938.00
2022-12-25T09:26:59.404Z,100912.00
2022-12-25T09:29:27.026Z,100917.00
2022-12-25T09:31:54.265Z,100914.00
2022-12-25T09:34:21.406Z,100922.00
2022-12-25T09:36:48.608Z,100932.00
2022-12-25T09:39:16.121Z,100928.00
2022-12-25T09:42:02.535Z,100925.00
2022-12-25T09:44:39.102Z,100924.00
2022-12-25T09:50:23.056Z,100902.00
2022-12-25T09:53:13.192Z,100911.00
2022-12-25T09:56:00.996Z,100902.00
2022-12-25T09:58:32.628Z,100877.00
2022-12-25T10:01:34.684Z,100899.00
2022-12-25T10:04:04.780Z,100897.00
2022-12-25T10:06:47.132Z,100902.00
2022-12-25T10:09:58.435Z,100894.00
2022-12-25T10:13:00.193Z,100873.00
2022-12-25T10:15:52.255Z,100853.00
2022-12-25T10:18:52.574Z,100860.00
2022-12-25T10:21:22.334Z,100859.00
2022-12-25T10:23:58.752Z,100853.00
2022-12-25T10:26:30.056Z,100865.00
2022-12-25T10:29:21.724Z,100866.00
2022-12-25T10:31:54.030Z,100856.00
2022-12-25T10:34:22.481Z,100858.00
2022-12-25T10:36:51.528Z,100868.00
2022-12-25T10:39:23.650Z,100848.00
2022-12-25T10:42:37.717Z,100847.00
2022-12-25T10:45:11.524Z,100829.00
2022-12-25T10:47:44.731Z,100824.00
2022-12-25T10:50:25.817Z,100798.00
2022-12-25T10:53:05.050Z,100820.00
2022-12-25T10:55:34.080Z,100821.00
2022-12-25T10:58:02.672Z,100808.00
2022-12-25T11:00:32.959Z,100811.00
2022-12-25T11:03:01.179Z,100821.00
2022-12-25T11:06:08.406Z,100805.00
2022-12-25T11:08:36.407Z,100775.00
2022-12-25T11:11:06.761Z,100781.00
2022-12-25T11:13:50.263Z,100777.00
2022-12-25T11:16:39.039Z,100755.00
2022-12-25T11:19:28.563Z,100733.00
2022-12-25T11:22:06.471Z,100724.00
2022-12-25T11:24:35.606Z,100737.00
2022-12-25T11:27:09.499Z,100733.00
2022-12-25T11:29:53.027Z,100744.00
2022-12-25T11:32:28.813Z,100744.00
2022-12-25T11:34:58.298Z,100756.00
2022-12-25T11:37:41.146Z,100749.00
2022-12-25T11:40:22.104Z,100708.00
2022-12-25T11:43:02.522Z,100709.00
2022-12-25T11:46:01.545Z,100704.00
2022-12-25T11:48:36.756Z,100706.00
2022-12-25T11:51:07.917Z,100711.00
2022-12-25T11:53:49.440Z,100723.00
2022-12-25T11:56:23.698Z,100715.00
2022-12-25T11:58:58.380Z,100716.00
2022-12-25T12:01:44.310Z,100709.00
2022-12-25T12:04:42.745Z,100709.00
2022-12-25T12:07:27.744Z,100704.00
2022-12-25T12:10:14.065Z,100691.00
2022-12-25T12:12:56.603Z,100695.00
2022-12-25T12:15:43.681Z,100691.00
2022-12-25T12:18:27.656Z,100682.00
2022-12-25T12:21:26.704Z,100689.00
2022-12-25T12:24:13.765Z,100685.00
2022-12-25T12:26:46.447Z,100669.00
2022-12-25T12:29:33.276Z,100681.00
2022-12-25T12:32:21.117Z,100671.00
2022-12-25T12:34:52.271Z,100658.00
2022-12-25T12:37:35.776Z,100653.00
2022-12-25T12:40:05.601Z,100653.00
2022-12-25T12:42:45.413Z,100651.00
2022-12-25T12:45:27.007Z,100653.00
2022-12-25T12:47:55.025Z,100646.00
2022-12-25T12:50:42.263Z,100644.00
2022-12-25T12:53:24.613Z,100644.00
2022-12-25T12:55:56.139Z,100643.00
2022-12-25T12:58:35.507Z,100649.00
2022-12-25T13:01:14.741Z,100651.00
2022-12-25T13:04:18.204Z,100651.00
2022-12-25T13:07:11.674Z,100642.00
2022-12-25T13:10:00.432Z,100637.00
2022-12-25T13:12:28.318Z,100634.00
2022-12-25T13:14:56.245Z,100633.00
2022-12-25T13:17:26.426Z,100633.00
2022-12-25T13:20:01.348Z,100634.00
2022-12-25T13:22:36.187Z,100633.00
2022-12-25T13:25:16.837Z,100623.00
2022-12-25T13:27:44.062Z,100617.00
2022-12-25T13:31:07.895Z,100616.00
2022-12-25T13:33:38.993Z,100612.00
2022-12-25T13:36:12.887Z,100612.00
2022-12-25T13:38:50.863Z,100611.00
2022-12-25T13:41:44.201Z,100597.00
2022-12-25T13:44:27.798Z,100601.00
2022-12-25T13:46:55.247Z,100598.00
2022-12-25T13:49:25.272Z,100599.00
2022-12-25T13:51:52.732Z,100600.00
2022-12-25T13:54:20.497Z,100596.00
2022-12-25T13:56:55.784Z,100589.00
2022-12-25T13:59:26.197Z,100597.00
2022-12-25T14:01:54.661Z,100577.00
2022-12-25T14:04:24.964Z,100590.00
2022-12-25T14:06:53.252Z,100580.00
2022-12-25T14:09:21.193Z,100577.00
2022-12-25T14:11:55.041Z,100573.00
2022-12-25T14:14:26.042Z,100565.00
2022-12-25T14:16:59.462Z,100569.00
2022-12-25T14:19:33.579Z,100571.00
2022-12-25T14:22:19.165Z,100569.00
2022-12-25T14:24:47.259Z,100576.00
2022-12-25T14:27:32.836Z,100563.00
2022-12-25T14:30:01.222Z,100561.00
2022-12-25T14:32:38.498Z,100556.00
2022-12-25T14:35:06.395Z,100534.00
2022-12-25T14:37:37.720Z,100538.00
2022-12-25T14:40:22.646Z,100542.00
2022-12-25T14:43:01.077Z,100545.00
2022-12-25T14:45:40.909Z,100548.00
2022-12-25T14:48:27.873Z,100546.00
2022-12-25T14:51:17.423Z,100538.00
2022-12-25T14:53:56.432Z,100537.00
2022-12-25T14:56:28.422Z,100533.00
2022-12-25T14:59:00.426Z,100542.00
2022-12-25T15:01:37.139Z,100544.00
2022-12-25T15:04:10.432Z,100539.00
2022-12-25T15:07:07.626Z,100528.00
2022-12-25T15:09:36.216Z,100521.00
2022-12-25T15:12:04.224Z,100521.00
2022-12-25T15:14:31.932Z,100519.00
2022-12-25T15:17:04.674Z,100506.00
2022-12-25T15:19:38.670Z,100514.00
2022-12-25T15:22:07.235Z,100509.00
2022-12-25T15:24:34.507Z,100511.00
2022-12-25T15:27:01.883Z,100498.00
2022-12-25T15:30:07.836Z,100513.00
2022-12-25T15:32:23.940Z,100505.00
2022-12-25T15:34:51.628Z,100506.00
2022-12-25T15:37:19.399Z,100515.00
2022-12-25T15:39:47.494Z,100518.00
2022-12-25T15:42:23.111Z,100515.00
2022-12-25T15:44:51.800Z,100521.00
2022-12-25T15:47:23.187Z,100504.00
2022-12-25T15:49:50.824Z,100514.00
2022-12-25T15:52:18.696Z,100522.00
2022-12-25T15:54:49.581Z,100502.00
2022-12-25T15:57:22.337Z,100522.00
2022-12-25T15:59:49.751Z,100517.00
2022-12-25T16:02:22.335Z,100503.00
2022-12-25T16:04:51.307Z,100515.00
2022-12-25T16:07:23.648Z,100523.00
2022-12-25T16:09:51.957Z,100519.00
2022-12-25T16:12:20.130Z,100513.00
2022-12-25T16:14:48.407Z,100509.00
2022-12-25T16:17:16.308Z,100511.00
2022-12-25T16:19:45.030Z,100512.00
2022-12-25T16:22:25.806Z,100520.00
2022-12-25T16:24:56.586Z,100530.00
2022-12-25T16:27:23.904Z,100505.00
2022-12-25T16:29:51.236Z,100499.00
2022-12-25T16:32:20.185Z,100504.00
2022-12-25T16:34:49.817Z,100508.00
2022-12-25T16:37:25.405Z,100495.00
2022-12-25T16:39:52.688Z,100517.00
2022-12-25T16:42:20.212Z,100496.00
2022-12-25T16:44:47.701Z,100504.00
2022-12-25T16:47:15.075Z,100499.00
2022-12-25T16:49:42.607Z,100507.00
2022-12-25T16:52:51.496Z,100519.00
2022-12-25T16:55:18.942Z,100528.00
2022-12-25T16:58:06.080Z,100512.00
2022-12-25T17:00:33.698Z,100510.00
2022-12-25T17:03:01.932Z,100508.00
2022-12-25T17:06:46.548Z,100516.00
2022-12-25T17:09:13.667Z,100522.00
2022-12-25T17:11:41.124Z,100509.00
2022-12-25T17:14:08.460Z,100515.00
2022-12-25T17:16:38.222Z,100521.00
2022-12-25T17:19:18.923Z,100517.00
2022-12-25T17:21:49.807Z,100507.00
2022-12-25T17:24:18.262Z,100511.00
2022-12-25T17:26:45.654Z,100513.00
2022-12-25T17:29:18.714Z,100515.00
2022-12-25T17:31:49.417Z,100513.00
2022-12-25T17:34:16.864Z,100503.00
2022-12-25T17:37:03.237Z,100512.00
2022-12-25T17:39:30.891Z,100519.00
2022-12-25T17:41:59.554Z,100515.00
2022-12-25T17:44:27.623Z,100516.00
2022-12-25T17:46:54.956Z,100516.00
2022-12-25T17:49:23.092Z,100515.00
2022-12-25T17:51:50.775Z,100520.00
2022-12-25T17:54:18.157Z,100517.00
2022-12-25T17:56:45.361Z,100505.00
2022-12-25T17:59:18.613Z,100520.00
2022-12-25T18:01:47.305Z,100526.00
2022-12-25T18:04:16.120Z,100533.00
2022-12-25T18:06:43.430Z,100512.00
2022-12-25T18:09:12.886Z,100511.00
2022-12-25T18:11:49.277Z,100499.00
2022-12-25T18:14:19.788Z,100508.00
2022-12-25T18:16:48.266Z,100500.00
2022-12-25T18:19:18.654Z,100491.00
2022-12-25T18:21:45.918Z,100495.00
2022-12-25T18:24:15.377Z,100482.00
2022-12-25T18:26:42.671Z,100503.00
2022-12-25T18:29:10.150Z,100502.00
2022-12-25T18:31:37.686Z,100514.00
2022-12-25T18:34:05.162Z,100496.00
2022-12-25T18:36:32.717Z,100506.00
2022-12-25T18:39:00.512Z,100513.00
2022-12-25T18:41:29.028Z,100503.00
2022-12-25T18:43:57.277Z,100517.00
2022-12-25T18:46:27.264Z,100529.00
2022-12-25T18:48:58.282Z,100533.00
2022-12-25T18:51:34.899Z,100533.00
2022-12-25T18:54:04.476Z,100525.00
2022-12-25T18:56:31.659Z,100523.00
2022-12-25T18:59:02.457Z,100531.00
2022-12-25T19:01:33.058Z,100528.00
2022-12-25T19:04:05.087Z,100524.00
2022-12-25T19:06:33.865Z,100536.00
2022-12-25T19:09:05.855Z,100531.00
2022-12-25T19:11:37.803Z,100525.00
2022-12-25T19:14:11.113Z,100516.00
2022-12-25T19:16:39.032Z,100529.00
2022-12-25T19:19:06.307Z,100532.00
2022-12-25T19:21:33.609Z,100529.00
2022-12-25T19:24:01.417Z,100536.00
2022-12-25T19:26:28.853Z,100533.00
2022-12-25T19:28:56.156Z,100526.00
2022-12-25T19:31:23.651Z,100536.00
2022-12-25T19:33:51.482Z,100524.00
2022-12-25T19:36:19.029Z,100517.00
2022-12-25T19:38:46.580Z,100527.00
2022-12-25T19:41:18.513Z,100517.00
2022-12-25T19:43:50.502Z,100501.00
2022-12-25T19:46:26.042Z,100508.00
2022-12-25T19:48:55.132Z,100520.00
2022-12-25T19:51:28.995Z,100512.00
2022-12-25T19:53:57.167Z,100532.00
2022-12-25T19:56:27.222Z,100533.00
2022-12-25T19:58:55.832Z,100525.00
2022-12-25T20:01:26.689Z,100531.00
2022-12-25T20:03:55.169Z,100523.00
2022-12-25T20:06:32.985Z,100541.00
2022-12-25T20:09:15.291Z,100546.00
2022-12-25T20:11:43.688Z,100541.00
2022-12-25T20:14:16.416Z,100546.00
2022-12-25T20:16:50.624Z,100540.00
2022-12-25T20:19:17.963Z,100538.00
2022-12-25T20:21:46.001Z,100535.00
2022-12-25T20:24:13.194Z,100535.00
2022-12-25T20:26:42.879Z,100523.00
2022-12-25T20:29:15.413Z,100512.00
2022-12-25T20:31:42.766Z,100519.00
2022-12-25T20:34:12.300Z,100520.00
2022-12-25T20:36:40.064Z,100525.00
2022-12-25T20:39:10.188Z,100525.00
2022-12-25T20:41:40.602Z,100542.00
2022-12-25T20:44:10.450Z,100519.00
2022-12-25T20:46:38.129Z,100512.00
2022-12-25T20:49:06.445Z,100520.00
2022-12-25T20:51:33.991Z,100530.00
2022-12-25T20:54:05.414Z,100522.00
2022-12-25T20:56:32.585Z,100525.00
2022-12-25T20:59:01.578Z,100524.00
2022-12-25T21:01:31.133Z,100537.00
2022-12-25T21:04:01.400Z,100525.00
2022-12-25T21:06:28.871Z,100536.00
2022-12-25T21:08:56.711Z,100530.00
2022-12-25T21:11:30.268Z,100544.00
2022-12-25T21:13:58.829Z,100558.00
2022-12-25T21:16:26.445Z,100570.00
2022-12-25T21:18:55.310Z,100579.00
2022-12-25T21:24:14.624Z,100572.00
2022-12-25T21:26:47.830Z,100583.00
2022-12-25T21:29:16.220Z,100592.00
2022-12-25T21:32:02.194Z,100592.00
2022-12-25T21:34:30.953Z,100592.00
2022-12-25T21:37:04.505Z,100588.00
2022-12-25T21:39:31.942Z,100582.00
2022-12-25T21:41:59.627Z,100570.00
2022-12-25T21:44:29.056Z,100580.00
2022-12-25T21:46:57.977Z,100574.00
2022-12-25T21:49:43.757Z,100589.00
2022-12-25T21:52:11.569Z,100598.00
2022-12-25T21:54:38.807Z,100602.00
2022-12-25T21:57:06.144Z,100606.00
2022-12-25T21:59:36.443Z,100602.00
2022-12-25T22:02:11.709Z,100599.00
2022-12-25T22:04:39.452Z,100614.00
2022-12-25T22:07:18.786Z,100610.00
2022-12-25T22:09:51.417Z,100600.00
2022-12-25T22:12:39.730Z,100620.00
2022-12-25T22:15:10.195Z,100612.00
2022-12-25T22:17:59.324Z,100616.00
2022-12-25T22:20:36.147Z,100615.00
2022-12-25T22:23:06.342Z,100609.00
2022-12-25T22:25:33.505Z,100616.00
2022-12-25T22:28:00.788Z,100613.00
2022-12-25T22:30:29.515Z,100614.00
2022-12-25T22:32:57.742Z,100617.00
2022-12-25T22:35:25.313Z,100617.00
2022-12-25T22:37:54.171Z,100630.00
2022-12-25T22:40:24.416Z,100639.00
2022-12-25T22:42:59.439Z,100620.00
2022-12-25T22:45:26.639Z,100631.00
2022-12-25T22:47:53.904Z,100638.00
2022-12-25T22:50:21.195Z,100628.00
2022-12-25T22:52:48.503Z,100631.00
2022-12-25T22:55:19.328Z,100637.00
2022-12-25T22:57:46.862Z,100631.00
2022-12-25T23:00:14.650Z,100616.00
2022-12-25T23:02:42.127Z,100627.00
2022-12-25T23:05:09.786Z,100619.00
2022-12-25T23:07:37.112Z,100632.00
2022-12-25T23:10:06.747Z,100625.00
2022-12-25T23:12:52.765Z,100634.00
2022-12-25T23:15:19.997Z,100644.00
2022-12-25T23:18:08.191Z,100647.00
2022-12-25T23:20:55.158Z,100632.00
2022-12-25T23:23:41.022Z,100623.00
2022-12-25T23:26:08.556Z,100628.00
2022-12-25T23:29:02.778Z,100625.00
2022-12-25T23:31:34.740Z,100626.00
2022-12-25T23:34:03.503Z,100621.00
2022-12-25T23:36:31.341Z,100628.00
2022-12-25T23:39:04.695Z,100629.00
2022-12-25T23:41:34.341Z,100617.00
2022-12-25T23:44:01.908Z,100628.00
2022-12-25T23:46:29.211Z,100633.00
2022-12-25T23:48:56.661Z,100631.00
2022-12-25T23:51:23.921Z,100635.00
2022-12-25T23:53:51.396Z,100619.00
2022-12-25T23:56:18.641Z,100637.00
2022-12-25T23:58:51.721Z,100639.00
